Main page


Airports :

Innsbruck, Austria

Innsbruck Airport

latitude: 47-16N, longitude: 011-21E, elevation: 581 m

Current weather observation

The report was made 21 minutes ago, at 11:20 UTC
Wind 4 kt from the Southwest, varying between Southeast and West/Northwest
Temperature 7°C
Humidity 66%
Pressure 997 hPa
Visibility 10 km or more
Few clouds at a height of 2500 ft
Scattered clouds at a height of 6000 ft

METAR: LOWI 181120Z 22004KT 140V300 9999 FEW025 SCT060 07/01 Q0997 R08/29//95 TEMPO 09007KT

Time: 12:41 (11:41 UTC)


The report was made 26 minutes ago, at 11:15 UTC
Forecast valid from 18 at 12 UTC to 19 at 12 UTC
Wind 7 kt from the East
Visibility 10 km or more
Few clouds at a height of 2000 ft
Broken clouds at a height of 6000 ft
from 18 at 21 UTC to 19 at 09 UTC
Visibility: 4000 m
Broken clouds at a height of 1200 ft
light snow, mist

TAF: LOWI 181115Z 1812/1912 08007KT 9999 FEW020 BKN060 TX06/1813Z TNM02/1907Z TEMPO 1821/1909 4000 -SN BR BKN012

Weather observations and forecasts of more than 4000 airports (METAR and TAF reports).

The available stations are represented by yellow and red dots on the map.

Hover mouse over dot to see the name of the station.

Then click to see weather observations and forecasts.

To change the map : click on the green buttons with a black cross to zoom in, on the green button with a dash to zoom out, or on the green arrows for adjacent maps.